createdAt,value
2023-04-15T00:01:02.801Z,11.90
2023-04-15T00:03:31.091Z,11.80
2023-04-15T00:08:28.837Z,12.30
2023-04-15T00:10:56.898Z,11.80
2023-04-15T00:13:24.967Z,11.40
2023-04-15T00:15:53.437Z,12.90
2023-04-15T00:18:24.832Z,11.80
2023-04-15T00:20:53.668Z,10.20
2023-04-15T00:23:21.773Z,10.00
2023-04-15T00:25:49.845Z,11.40
2023-04-15T00:28:18.569Z,9.80
2023-04-15T00:30:47.480Z,9.90
2023-04-15T00:33:16.699Z,10.50
2023-04-15T00:35:44.955Z,10.10
2023-04-15T00:38:14.730Z,10.60
2023-04-15T00:40:43.721Z,11.60
2023-04-15T00:43:13.059Z,10.60
2023-04-15T00:45:41.497Z,10.70
2023-04-15T00:48:12.631Z,11.00
2023-04-15T00:50:40.825Z,10.70
2023-04-15T00:53:08.917Z,11.50
2023-04-15T00:55:38.151Z,11.00
2023-04-15T00:58:06.572Z,10.10
2023-04-15T01:00:34.716Z,10.10
2023-04-15T01:03:03.523Z,10.30
2023-04-15T01:05:32.193Z,9.60
2023-04-15T01:08:00.610Z,9.40
2023-04-15T01:10:28.715Z,9.70
2023-04-15T01:12:57.077Z,10.30
2023-04-15T01:15:27.672Z,9.10
2023-04-15T01:18:03.383Z,9.50
2023-04-15T01:20:32.339Z,9.30
2023-04-15T01:23:02.364Z,9.30
2023-04-15T01:25:35.180Z,9.60
2023-04-15T01:28:05.153Z,8.70
2023-04-15T01:30:37.137Z,8.90
2023-04-15T01:33:05.423Z,8.70
2023-04-15T01:35:35.051Z,8.70
2023-04-15T01:38:09.162Z,9.50
2023-04-15T01:40:39.671Z,8.90
2023-04-15T01:43:08.349Z,8.50
2023-04-15T01:45:36.596Z,8.20
2023-04-15T01:48:05.843Z,9.00
2023-04-15T01:50:34.255Z,8.40
2023-04-15T01:55:31.160Z,8.10
2023-04-15T01:57:59.290Z,7.70
2023-04-15T02:00:27.451Z,8.00
2023-04-15T02:02:55.759Z,7.50
2023-04-15T02:05:26.250Z,8.40
2023-04-15T02:07:54.652Z,8.20
2023-04-15T02:10:25.443Z,8.80
2023-04-15T02:12:54.523Z,7.80
2023-04-15T02:15:23.398Z,7.40
2023-04-15T02:17:53.287Z,8.30
2023-04-15T02:20:21.767Z,8.30
2023-04-15T02:22:49.956Z,8.20
2023-04-15T02:25:18.387Z,7.30
2023-04-15T02:27:46.546Z,8.00
2023-04-15T02:30:14.819Z,7.30
2023-04-15T02:32:45.333Z,7.60
2023-04-15T02:35:14.326Z,6.40
2023-04-15T02:40:17.283Z,7.10
2023-04-15T02:42:46.799Z,6.80
2023-04-15T02:45:19.431Z,6.60
2023-04-15T02:47:47.876Z,7.00
2023-04-15T02:50:16.573Z,6.20
2023-04-15T02:52:45.031Z,7.20
2023-04-15T02:55:14.639Z,7.40
2023-04-15T02:57:44.939Z,7.50
2023-04-15T03:02:47.070Z,6.80
2023-04-15T03:05:15.639Z,6.90
2023-04-15T03:07:53.590Z,6.20
2023-04-15T03:10:22.071Z,6.60
2023-04-15T03:12:50.359Z,6.70
2023-04-15T03:15:21.416Z,6.30
2023-04-15T03:17:51.889Z,6.30
2023-04-15T03:20:20.657Z,6.30
2023-04-15T03:22:52.252Z,6.70
2023-04-15T03:25:22.193Z,6.60
2023-04-15T03:27:52.989Z,6.00
2023-04-15T03:30:22.740Z,5.40
2023-04-15T03:32:52.128Z,6.10
2023-04-15T03:35:21.273Z,6.30
2023-04-15T03:37:49.701Z,6.00
2023-04-15T03:40:17.872Z,7.70
2023-04-15T03:42:46.088Z,9.40
2023-04-15T03:45:14.213Z,6.90
2023-04-15T03:47:42.525Z,6.90
2023-04-15T03:50:12.206Z,6.50
2023-04-15T03:52:40.379Z,7.20
2023-04-15T03:55:09.928Z,6.80
2023-04-15T03:57:39.967Z,7.20
2023-04-15T04:00:10.312Z,7.20
2023-04-15T04:02:41.356Z,6.90
2023-04-15T04:05:10.064Z,7.00
2023-04-15T04:07:38.347Z,6.90
2023-04-15T04:10:07.317Z,8.00
2023-04-15T04:12:35.417Z,7.40
2023-04-15T04:15:03.962Z,7.40
2023-04-15T04:26:12.757Z,6.90
2023-04-15T04:28:41.147Z,8.00
2023-04-15T04:33:38.492Z,7.70
2023-04-15T04:36:06.992Z,7.20
2023-04-15T04:38:36.369Z,7.20
2023-04-15T04:41:06.402Z,6.90
2023-04-15T04:43:36.177Z,7.30
2023-04-15T04:46:05.952Z,7.30
2023-04-15T04:48:34.147Z,6.50
2023-04-15T04:51:02.497Z,6.70
2023-04-15T04:53:32.714Z,7.00
2023-04-15T04:58:29.508Z,6.40
2023-04-15T05:00:58.370Z,6.50
2023-04-15T05:03:27.666Z,6.20
2023-04-15T05:05:56.282Z,6.40
2023-04-15T05:08:25.875Z,6.50
2023-04-15T05:10:55.047Z,6.60
2023-04-15T05:13:23.183Z,6.00
2023-04-15T05:15:51.765Z,6.20
2023-04-15T05:18:20.772Z,6.60
2023-04-15T05:20:50.467Z,6.40
2023-04-15T05:23:19.401Z,8.90
2023-04-15T05:25:47.451Z,5.40
2023-04-15T05:28:15.837Z,5.70
2023-04-15T05:30:44.032Z,5.50
2023-04-15T05:33:13.961Z,5.30
2023-04-15T05:35:43.675Z,5.20
2023-04-15T05:38:11.867Z,5.20
2023-04-15T05:40:40.084Z,4.60
2023-04-15T05:43:08.457Z,5.10
2023-04-15T05:45:36.708Z,4.90
2023-04-15T05:48:04.876Z,4.80
2023-04-15T05:50:32.971Z,5.10
2023-04-15T05:53:02.290Z,4.60
2023-04-15T05:55:32.306Z,4.70
2023-04-15T05:58:00.795Z,4.80
2023-04-15T06:02:58.398Z,4.90
2023-04-15T06:05:26.593Z,4.90
2023-04-15T06:07:54.704Z,5.30
2023-04-15T06:10:22.873Z,6.10
2023-04-15T06:12:53.303Z,5.60
2023-04-15T06:15:23.146Z,5.50
2023-04-15T06:17:52.570Z,6.40
2023-04-15T06:20:22.151Z,6.20
2023-04-15T06:22:51.627Z,5.50
2023-04-15T06:25:20.041Z,5.20
2023-04-15T06:27:48.954Z,5.40
2023-04-15T06:30:17.761Z,4.80
2023-04-15T06:32:46.486Z,4.30
2023-04-15T06:35:16.167Z,4.40
2023-04-15T06:37:44.456Z,4.00
2023-04-15T06:40:12.823Z,3.80
2023-04-15T06:42:42.052Z,3.50
2023-04-15T06:45:12.135Z,3.70
2023-04-15T06:47:42.036Z,3.60
2023-04-15T06:50:11.886Z,3.50
2023-04-15T06:52:41.404Z,3.80
2023-04-15T06:55:10.237Z,3.90
2023-04-15T06:57:38.455Z,4.20
2023-04-15T07:02:35.773Z,3.60
2023-04-15T07:05:05.238Z,3.20
2023-04-15T07:07:33.405Z,3.30
2023-04-15T07:10:02.764Z,3.40
2023-04-15T07:12:31.163Z,3.10
2023-04-15T07:15:00.310Z,3.70
2023-04-15T07:17:29.045Z,3.60
2023-04-15T07:19:57.128Z,3.40
2023-04-15T07:24:53.540Z,3.00
2023-04-15T07:29:51.710Z,3.80
2023-04-15T07:32:20.250Z,2.40
2023-04-15T07:34:48.392Z,2.40
2023-04-15T07:37:16.550Z,2.60
2023-04-15T07:39:44.715Z,3.20
2023-04-15T07:44:41.279Z,3.60
2023-04-15T07:47:09.373Z,3.00
2023-04-15T07:49:37.531Z,3.20
2023-04-15T07:52:06.868Z,3.30
2023-04-15T07:54:36.331Z,3.30
2023-04-15T07:57:04.659Z,3.00
2023-04-15T07:59:33.669Z,2.60
2023-04-15T08:02:01.889Z,3.20
2023-04-15T08:04:30.231Z,2.40
2023-04-15T08:06:58.558Z,2.90
2023-04-15T08:09:27.299Z,2.80
2023-04-15T08:11:56.690Z,2.60
2023-04-15T08:14:26.408Z,2.40
2023-04-15T08:16:55.928Z,2.60
2023-04-15T08:19:25.479Z,2.30
2023-04-15T08:21:54.010Z,2.50
2023-04-15T08:24:22.843Z,2.50
2023-04-15T08:26:51.028Z,2.40
2023-04-15T08:29:19.400Z,2.60
2023-04-15T08:31:47.951Z,1.70
2023-04-15T08:34:16.262Z,2.00
2023-04-15T08:36:44.408Z,1.70
2023-04-15T08:39:12.851Z,2.10
2023-04-15T08:41:50.210Z,1.80
2023-04-15T08:44:18.814Z,2.00
2023-04-15T08:46:47.707Z,1.50
2023-04-15T08:49:18.131Z,1.60
2023-04-15T08:51:46.823Z,1.20
2023-04-15T08:54:16.330Z,0.90
2023-04-15T08:56:46.170Z,0.70
2023-04-15T08:59:16.762Z,0.80
2023-04-15T09:01:46.198Z,0.90
2023-04-15T09:04:14.722Z,0.70
2023-04-15T09:06:43.065Z,0.60
2023-04-15T09:09:13.241Z,0.80
2023-04-15T09:11:44.586Z,0.80
2023-04-15T09:14:13.682Z,0.70
2023-04-15T09:17:02.058Z,1.00
2023-04-15T09:19:31.754Z,0.90
2023-04-15T09:22:00.645Z,1.00
2023-04-15T09:24:38.757Z,1.00
2023-04-15T09:27:07.680Z,1.00
2023-04-15T09:29:37.562Z,0.90
2023-04-15T09:32:16.249Z,0.60
2023-04-15T09:34:44.813Z,0.90
2023-04-15T09:37:20.700Z,0.70
2023-04-15T09:39:59.857Z,0.60
2023-04-15T09:42:29.029Z,0.90
2023-04-15T09:45:09.046Z,0.90
2023-04-15T09:47:37.447Z,1.00
2023-04-15T09:50:06.294Z,0.70
2023-04-15T09:52:43.437Z,0.70
2023-04-15T09:55:18.534Z,0.70
2023-04-15T09:57:50.034Z,0.90
2023-04-15T10:00:18.284Z,0.90
2023-04-15T10:02:47.978Z,1.00
2023-04-15T10:05:18.098Z,1.00
2023-04-15T10:07:48.466Z,0.70
2023-04-15T10:10:18.123Z,0.60
2023-04-15T10:12:48.310Z,0.90
2023-04-15T10:15:19.808Z,0.50
2023-04-15T10:17:50.642Z,0.80
2023-04-15T10:20:19.890Z,0.70
2023-04-15T10:22:51.552Z,0.70
2023-04-15T10:25:21.185Z,0.70
2023-04-15T10:27:52.318Z,0.70
2023-04-15T10:30:21.152Z,0.80
2023-04-15T10:32:50.670Z,0.70
2023-04-15T10:35:22.439Z,0.70
2023-04-15T10:37:50.741Z,0.80
2023-04-15T10:40:33.630Z,0.90
2023-04-15T10:43:03.742Z,0.60
2023-04-15T10:45:38.564Z,0.60
2023-04-15T10:48:09.647Z,0.70
2023-04-15T10:50:38.077Z,0.70
2023-04-15T10:53:06.372Z,0.50
2023-04-15T10:55:35.471Z,0.70
2023-04-15T10:58:03.750Z,0.60
2023-04-15T11:00:33.266Z,0.50
2023-04-15T11:03:09.994Z,0.60
2023-04-15T11:05:41.747Z,0.90
2023-04-15T11:08:11.658Z,0.70
2023-04-15T11:10:39.759Z,0.60
2023-04-15T11:13:11.136Z,0.90
2023-04-15T11:15:43.090Z,0.90
2023-04-15T11:18:19.307Z,0.90
2023-04-15T11:20:52.240Z,0.60
2023-04-15T11:23:28.023Z,0.60
2023-04-15T11:25:58.115Z,0.70
2023-04-15T11:28:31.668Z,0.60
2023-04-15T11:31:06.920Z,0.60
2023-04-15T11:33:35.149Z,0.90
2023-04-15T11:36:04.467Z,0.60
2023-04-15T11:38:34.926Z,1.00
2023-04-15T11:41:03.093Z,0.70
2023-04-15T11:43:32.543Z,0.60
2023-04-15T11:46:03.039Z,0.50
2023-04-15T11:48:35.910Z,0.60
2023-04-15T11:51:07.591Z,0.60
2023-04-15T11:53:44.863Z,0.60
2023-04-15T11:56:24.440Z,0.50
2023-04-15T11:58:57.130Z,0.70
2023-04-15T12:01:43.173Z,0.50
2023-04-15T12:04:25.651Z,0.40
2023-04-15T12:06:54.459Z,0.50
2023-04-15T12:09:22.731Z,0.60
2023-04-15T12:11:53.924Z,1.20
2023-04-15T12:14:33.682Z,1.30
2023-04-15T12:17:08.107Z,0.70
2023-04-15T12:19:40.274Z,0.60
2023-04-15T12:22:13.050Z,0.60
2023-04-15T12:24:48.224Z,0.60
2023-04-15T12:27:17.754Z,0.50
2023-04-15T12:29:46.023Z,0.40
2023-04-15T12:34:51.141Z,0.50
2023-04-15T12:37:22.230Z,0.60
2023-04-15T12:39:50.629Z,0.50
2023-04-15T12:42:21.316Z,0.50
2023-04-15T12:44:52.107Z,0.40
2023-04-15T12:47:20.512Z,0.50
2023-04-15T12:49:49.754Z,0.50
2023-04-15T12:52:17.913Z,0.50
2023-04-15T12:59:42.754Z,0.60
2023-04-15T13:02:11.039Z,0.60
2023-04-15T13:04:41.340Z,0.50
2023-04-15T13:07:09.698Z,0.40
2023-04-15T13:12:06.869Z,0.70
2023-04-15T13:14:35.136Z,0.70
2023-04-15T13:19:37.266Z,0.50
2023-04-15T13:22:05.603Z,0.80
2023-04-15T13:27:02.157Z,1.20
2023-04-15T13:29:30.483Z,0.70
2023-04-15T13:34:31.373Z,1.30
2023-04-15T13:37:07.045Z,0.70
2023-04-15T13:39:35.283Z,0.70
2023-04-15T13:42:03.859Z,0.90
2023-04-15T13:44:32.129Z,1.10
2023-04-15T13:49:30.935Z,0.90
2023-04-15T13:51:59.137Z,1.60
2023-04-15T13:57:06.883Z,0.80
2023-04-15T13:59:35.149Z,0.70
2023-04-15T14:04:34.316Z,0.80
2023-04-15T14:07:04.005Z,0.90
2023-04-15T14:09:35.219Z,0.60
2023-04-15T14:12:05.799Z,0.70
2023-04-15T14:14:36.001Z,0.70
2023-04-15T14:17:06.428Z,0.90
2023-04-15T14:19:35.350Z,0.80
2023-04-15T14:22:03.950Z,0.50
2023-04-15T14:24:32.377Z,0.60
2023-04-15T14:27:00.538Z,0.40
2023-04-15T14:29:28.708Z,0.60
2023-04-15T14:34:41.131Z,0.70
2023-04-15T14:37:10.545Z,0.60
2023-04-15T14:39:38.730Z,0.40
2023-04-15T14:42:06.836Z,0.60
2023-04-15T14:44:34.889Z,0.60
2023-04-15T14:47:03.861Z,0.50
2023-04-15T14:49:32.359Z,0.50
2023-04-15T14:52:00.871Z,0.80
2023-04-15T14:54:28.999Z,0.50
2023-04-15T14:59:28.192Z,0.50
2023-04-15T15:01:56.476Z,0.60
2023-04-15T15:04:25.257Z,0.50
2023-04-15T15:11:52.027Z,0.60
2023-04-15T15:14:21.880Z,0.70
2023-04-15T15:16:50.372Z,0.80
2023-04-15T15:19:19.760Z,0.70
2023-04-15T15:21:47.871Z,0.60
2023-04-15T15:29:12.633Z,0.80
2023-04-15T15:31:40.865Z,0.60
2023-04-15T15:36:38.181Z,0.50
2023-04-15T15:39:06.426Z,0.60
2023-04-15T15:41:34.975Z,0.80
2023-04-15T15:44:05.069Z,0.50
2023-04-15T15:46:33.506Z,0.70
2023-04-15T15:49:04.609Z,0.60
2023-04-15T15:51:33.081Z,0.50
2023-04-15T16:01:25.295Z,0.90
2023-04-15T16:06:24.557Z,1.10
2023-04-15T16:08:55.101Z,1.80
2023-04-15T16:11:24.357Z,1.60
2023-04-15T16:13:52.512Z,1.00
2023-04-15T16:16:22.239Z,0.80
2023-04-15T16:18:51.138Z,0.70
2023-04-15T16:21:20.388Z,1.00
2023-04-15T16:23:48.670Z,1.10
2023-04-15T16:26:17.352Z,0.90
2023-04-15T16:28:45.917Z,1.00
2023-04-15T16:31:14.040Z,0.70
2023-04-15T16:33:43.449Z,1.30
2023-04-15T16:36:11.749Z,0.80
2023-04-15T16:38:40.975Z,1.50
2023-04-15T16:41:09.502Z,1.10
2023-04-15T16:43:37.705Z,1.30
2023-04-15T16:46:05.970Z,1.00
2023-04-15T16:48:34.481Z,1.10
2023-04-15T16:53:32.136Z,1.00
2023-04-15T16:56:01.670Z,1.00
2023-04-15T16:58:29.828Z,1.00
2023-04-15T17:00:59.394Z,1.10
2023-04-15T17:03:27.682Z,1.20
2023-04-15T17:06:02.831Z,1.30
2023-04-15T17:08:30.997Z,1.60
2023-04-15T17:11:02.527Z,1.10
2023-04-15T17:13:31.647Z,1.30
2023-04-15T17:16:02.454Z,1.10
2023-04-15T17:18:35.768Z,1.30
2023-04-15T17:21:05.600Z,1.20
2023-04-15T17:23:33.825Z,1.20
2023-04-15T17:26:02.043Z,1.30
2023-04-15T17:28:30.174Z,1.00
2023-04-15T17:30:58.392Z,1.80
2023-04-15T17:33:57.619Z,1.60
2023-04-15T17:36:20.526Z,4.50
2023-04-15T17:38:48.830Z,4.10
2023-04-15T17:41:18.448Z,3.80
2023-04-15T17:43:46.643Z,3.50
2023-04-15T17:46:16.053Z,3.40
2023-04-15T17:48:44.230Z,3.70
2023-04-15T17:51:13.970Z,3.50
2023-04-15T17:53:42.221Z,3.70
2023-04-15T17:56:10.618Z,4.00
2023-04-15T18:01:07.796Z,4.20
2023-04-15T18:03:36.028Z,4.30
2023-04-15T18:08:33.542Z,5.50
2023-04-15T18:11:01.704Z,5.20
2023-04-15T18:13:33.853Z,6.00
2023-04-15T18:16:01.953Z,5.80
2023-04-15T18:18:34.025Z,5.30
2023-04-15T18:21:05.036Z,5.50
2023-04-15T18:23:39.566Z,5.30
2023-04-15T18:26:10.919Z,7.20
2023-04-15T18:28:42.230Z,7.50
2023-04-15T18:31:13.132Z,7.50
2023-04-15T18:33:44.216Z,8.00
2023-04-15T18:36:15.323Z,7.30
2023-04-15T18:38:51.508Z,8.10
2023-04-15T18:41:23.532Z,11.10
2023-04-15T18:44:15.706Z,14.90
2023-04-15T18:46:48.987Z,16.80
2023-04-15T18:49:25.014Z,16.80
2023-04-15T18:51:55.923Z,19.00
2023-04-15T18:54:51.879Z,21.10
2023-04-15T18:57:26.024Z,22.20
2023-04-15T18:59:59.448Z,22.30
2023-04-15T19:02:30.351Z,21.60
2023-04-15T19:05:06.703Z,20.50
2023-04-15T19:07:41.533Z,19.50
2023-04-15T19:10:12.418Z,19.90
2023-04-15T19:12:43.629Z,20.90
2023-04-15T19:15:14.812Z,20.60
2023-04-15T19:17:45.817Z,20.00
2023-04-15T19:20:17.341Z,21.90
2023-04-15T19:22:48.565Z,21.50
2023-04-15T19:25:19.183Z,22.60
2023-04-15T19:27:50.338Z,23.50
2023-04-15T19:30:22.069Z,24.00
2023-04-15T19:32:53.042Z,22.20
2023-04-15T19:35:24.159Z,22.40
2023-04-15T19:37:55.074Z,21.30
2023-04-15T19:40:26.842Z,22.30
2023-04-15T19:42:57.799Z,22.10
2023-04-15T19:45:31.680Z,21.00
2023-04-15T19:48:02.626Z,22.80
2023-04-15T19:50:33.661Z,23.20
2023-04-15T19:53:04.440Z,22.30
2023-04-15T19:55:35.636Z,23.80
2023-04-15T19:58:06.278Z,22.10
2023-04-15T20:00:36.727Z,21.50
2023-04-15T20:03:07.936Z,18.40
2023-04-15T20:05:39.105Z,18.20
2023-04-15T20:08:10.128Z,17.10
2023-04-15T20:10:41.274Z,17.30
2023-04-15T20:13:12.075Z,17.10
2023-04-15T20:15:43.252Z,16.60
2023-04-15T20:18:13.990Z,16.60
2023-04-15T20:20:47.945Z,16.80
2023-04-15T20:23:19.187Z,17.10
2023-04-15T20:25:50.386Z,17.80
2023-04-15T20:28:23.515Z,16.40
2023-04-15T20:30:54.302Z,17.40
2023-04-15T20:33:25.963Z,17.40
2023-04-15T20:35:56.861Z,17.40
2023-04-15T20:38:27.879Z,18.70
2023-04-15T20:40:59.012Z,19.00
2023-04-15T20:43:30.090Z,17.60
2023-04-15T20:46:07.011Z,18.70
2023-04-15T20:48:48.969Z,18.90
2023-04-15T20:51:19.869Z,18.90
2023-04-15T20:53:50.822Z,18.70
2023-04-15T20:56:21.909Z,19.20
2023-04-15T20:58:53.004Z,20.00
2023-04-15T21:01:26.318Z,19.30
2023-04-15T21:03:57.479Z,19.40
2023-04-15T21:06:28.618Z,20.80
2023-04-15T21:08:59.411Z,19.30
2023-04-15T21:11:53.263Z,18.60
2023-04-15T21:14:23.253Z,19.50
2023-04-15T21:16:54.354Z,21.60
2023-04-15T21:19:25.553Z,20.90
2023-04-15T21:21:56.592Z,20.30
2023-04-15T21:24:24.862Z,20.50
2023-04-15T21:26:57.334Z,19.70
2023-04-15T21:29:28.020Z,20.30
2023-04-15T21:31:59.496Z,19.60
2023-04-15T21:34:32.868Z,20.40
2023-04-15T21:37:03.742Z,19.90
2023-04-15T21:39:34.926Z,20.30
2023-04-15T21:42:06.017Z,20.90
2023-04-15T21:44:36.956Z,20.40
2023-04-15T21:47:07.908Z,20.20
2023-04-15T21:49:38.647Z,20.50
2023-04-15T21:52:10.554Z,20.60
2023-04-15T21:54:42.100Z,20.70
2023-04-15T21:57:13.492Z,19.50
2023-04-15T21:59:41.676Z,19.20
2023-04-15T22:02:12.953Z,19.20
2023-04-15T22:04:44.224Z,17.10
2023-04-15T22:07:15.606Z,17.50
2023-04-15T22:09:46.695Z,16.60
2023-04-15T22:12:17.494Z,16.40
2023-04-15T22:15:06.956Z,17.40
2023-04-15T22:17:38.211Z,17.10
2023-04-15T22:20:11.068Z,17.30
2023-04-15T22:22:44.007Z,17.20
2023-04-15T22:25:16.294Z,18.10
2023-04-15T22:27:44.445Z,17.10
2023-04-15T22:30:15.865Z,17.10
2023-04-15T22:32:47.231Z,16.50
2023-04-15T22:35:18.771Z,16.50
2023-04-15T22:37:50.111Z,16.50
2023-04-15T22:40:21.282Z,15.70
2023-04-15T22:42:52.617Z,14.90
2023-04-15T22:45:23.876Z,15.60
2023-04-15T22:47:55.116Z,14.80
2023-04-15T22:50:26.453Z,13.70
2023-04-15T22:52:57.887Z,12.90
2023-04-15T22:55:28.992Z,12.60
2023-04-15T22:57:59.816Z,13.70
2023-04-15T23:00:27.980Z,13.30
2023-04-15T23:02:59.994Z,13.30
2023-04-15T23:05:31.274Z,12.00
2023-04-15T23:08:02.714Z,12.70
2023-04-15T23:10:33.875Z,12.20
2023-04-15T23:13:02.028Z,11.30
2023-04-15T23:15:33.229Z,11.90
2023-04-15T23:18:04.229Z,12.30
2023-04-15T23:20:35.426Z,12.50
2023-04-15T23:23:06.522Z,11.40
2023-04-15T23:25:37.304Z,11.90
2023-04-15T23:28:08.492Z,11.60
2023-04-15T23:30:39.410Z,11.40
2023-04-15T23:33:12.067Z,10.50
2023-04-15T23:35:43.206Z,11.30
2023-04-15T23:38:13.941Z,11.00
2023-04-15T23:40:44.876Z,10.80
2023-04-15T23:43:16.030Z,11.00
2023-04-15T23:45:47.128Z,10.00
2023-04-15T23:48:18.312Z,10.30
2023-04-15T23:50:53.999Z,10.60
2023-04-15T23:53:25.001Z,9.90
2023-04-15T23:55:56.922Z,10.40
2023-04-15T23:58:27.595Z,10.10
